Time;durP1;ratioP1;P1;durP2;ratioP2;P2;SDS_P1;SDS_P2;PMS_P1;PMS_P2;Temp;Humidity;BMP_temperature;BMP_pressure;BME280_temperature;BME280_humidity;BME280_pressure;Samples;Min_cycle;Max_cycle;Signal;HPM_P1;HPM_P2
2022/02/02 00:04:26;;;;;;;2.20;0.90;;;17.10;49.80;;;;;;5098605;28;20024;-58
2022/02/02 00:09:23;;;;;;;2.40;0.90;;;17.00;49.80;;;;;;5098435;28;20032;-58
2022/02/02 00:17:18;;;;;;;2.38;0.95;;;17.00;49.90;;;;;;5098074;28;20547;-58
2022/02/02 00:22:15;;;;;;;2.50;0.73;;;17.00;49.90;;;;;;5098355;28;20497;-58
2022/02/02 00:27:17;;;;;;;1.50;0.73;;;17.00;49.80;;;;;;5097429;28;20036;-58
2022/02/02 00:29:52;;;;;;;;;;;17.00;49.90;;;;;;5097462;28;20027;-58
2022/02/02 00:34:46;;;;;;;2.13;0.68;;;17.00;49.80;;;;;;5096388;28;20390;-58
2022/02/02 00:37:14;;;;;;;4.30;0.90;;;17.00;49.90;;;;;;5096457;28;20028;-59
2022/02/02 00:39:42;;;;;;;1.88;0.90;;;16.90;49.80;;;;;;5095289;28;20020;-57
2022/02/02 00:42:09;;;;;;;1.80;0.90;;;16.90;49.80;;;;;;5094463;28;20020;-57
2022/02/02 00:44:41;;;;;;;2.28;0.90;;;17.00;49.90;;;;;;5094438;28;20028;-57
2022/02/02 00:47:07;;;;;;;2.08;0.88;;;16.90;49.80;;;;;;5094738;28;20512;-57
2022/02/02 00:49:34;;;;;;;2.40;0.93;;;16.90;49.80;;;;;;5095030;28;20023;-57
2022/02/02 00:52:00;;;;;;;1.73;0.85;;;16.90;49.90;;;;;;5095301;28;20012;-57
2022/02/02 00:54:27;;;;;;;1.45;0.88;;;16.90;49.80;;;;;;5094477;28;20066;-57
2022/02/02 00:56:52;;;;;;;2.08;0.90;;;17.00;49.80;;;;;;5094438;28;20074;-57
2022/02/02 00:59:19;;;;;;;2.10;0.90;;;16.90;49.80;;;;;;5094200;28;20032;-57
2022/02/02 01:01:45;;;;;;;2.40;0.93;;;16.90;49.80;;;;;;5094994;28;20023;-58
2022/02/02 01:04:11;;;;;;;1.73;0.82;;;16.90;49.80;;;;;;5094909;28;20012;-58
2022/02/02 01:06:43;;;;;;;2.15;0.93;;;16.90;49.80;;;;;;5094784;28;20012;-57
2022/02/02 01:19:58;;;;;;;2.72;0.80;;;16.90;49.80;;;;;;5094092;28;20083;-58
2022/02/02 01:27:46;;;;;;;1.55;0.90;;;16.90;49.80;;;;;;5093793;28;20024;-57
2022/02/02 01:27:54;;;;;;;1.95;1.10;;;16.90;49.80;;;;;;5093985;28;20039;-56
2022/02/02 01:30:23;;;;;;;1.50;0.65;;;16.80;49.80;;;;;;5094423;28;20016;-56
2022/02/02 01:32:48;;;;;;;1.67;0.77;;;16.90;49.90;;;;;;5094195;28;20083;-55
2022/02/02 01:35:16;;;;;;;1.98;0.95;;;16.90;49.90;;;;;;5093602;28;20066;-56
2022/02/02 01:37:43;;;;;;;1.27;0.63;;;16.90;49.80;;;;;;5093737;28;20061;-56
2022/02/02 01:40:17;;;;;;;1.55;0.75;;;16.90;50.40;;;;;;5093761;28;20119;-56
2022/02/02 01:42:51;;;;;;;1.80;0.80;;;16.80;49.80;;;;;;5093767;28;20024;-55
2022/02/02 01:45:24;;;;;;;2.05;0.95;;;16.90;49.90;;;;;;5093857;28;20024;-55
2022/02/02 01:50:42;;;;;;;3.60;0.90;;;16.90;49.70;;;;;;5093351;28;20490;-55
2022/02/02 01:55:43;;;;;;;1.23;0.65;;;16.90;49.80;;;;;;5093201;28;20077;-55
2022/02/02 02:00:54;;;;;;;1.85;0.73;;;16.80;49.80;;;;;;5093269;28;20067;-56
2022/02/02 02:03:20;;;;;;;1.58;0.73;;;16.80;49.70;;;;;;5093393;28;20021;-57
2022/02/02 02:05:46;;;;;;;2.28;0.90;;;16.90;49.80;;;;;;5091853;28;20470;-57
2022/02/02 02:08:11;;;;;;;3.20;0.80;;;16.80;49.80;;;;;;5093237;28;20462;-57
2022/02/02 02:10:37;;;;;;;1.80;0.90;;;16.80;49.80;;;;;;5092008;28;20020;-56
2022/02/02 02:13:09;;;;;;;1.58;0.68;;;16.90;49.80;;;;;;5093337;28;20023;-55
2022/02/02 02:15:35;;;;;;;1.60;0.60;;;16.80;49.70;;;;;;5092995;28;20502;-54
2022/02/02 02:18:03;;;;;;;1.95;0.77;;;16.80;49.70;;;;;;5091848;28;20043;-57
2022/02/02 02:20:29;;;;;;;1.88;0.93;;;16.80;49.80;;;;;;5093190;28;20044;-54
2022/02/02 02:22:55;;;;;;;1.25;0.55;;;16.80;49.70;;;;;;5092888;28;20474;-54
2022/02/02 02:25:23;;;;;;;1.75;0.75;;;16.90;49.80;;;;;;5093003;28;20048;-55
2022/02/02 02:27:49;;;;;;;2.22;0.70;;;16.80;49.80;;;;;;5092988;28;20008;-55
2022/02/02 02:30:42;;;;;;;1.55;0.82;;;16.80;50.40;;;;;;5092857;28;20048;-55
2022/02/02 02:57:19;;;;;;;1.45;0.80;;;16.80;49.90;;;;;;5092875;28;20513;-55
2022/02/02 03:00:01;;;;;;;2.13;0.80;;;16.80;49.80;;;;;;5092405;28;20115;-56
2022/02/02 03:51:29;;;;;;;2.13;0.80;;;16.70;50.10;;;;;;5095945;28;20558;-56
2022/02/02 04:07:06;;;;;;;1.42;0.80;;;16.60;50.10;;;;;;5094163;28;20115;-56
2022/02/02 04:09:37;;;;;;;3.88;1.20;;;16.60;50.10;;;;;;5095178;28;20071;-55
2022/02/02 04:55:48;;;;;;;2.67;0.90;;;17.80;47.40;;;;;;5052225;28;20048;-56
2022/02/02 05:06:30;;;;;;;1.17;0.80;;;18.20;46.50;;;;;;5071785;28;20044;-56
2022/02/02 05:49:21;;;;;;;1.08;0.60;;;19.50;44.10;;;;;;5092434;28;20027;-57
2022/02/02 05:51:49;;;;;;;1.25;0.70;;;19.60;44.00;;;;;;5092045;28;20024;-55
2022/02/02 05:54:15;;;;;;;1.65;0.80;;;19.70;44.00;;;;;;5093534;28;20047;-57
2022/02/02 05:56:50;;;;;;;2.00;1.02;;;19.70;43.80;;;;;;5093560;28;20394;-57
2022/02/02 05:59:21;;;;;;;2.03;0.80;;;19.80;43.70;;;;;;5093241;28;20028;-57
2022/02/02 06:01:57;;;;;;;1.53;0.70;;;19.90;43.60;;;;;;5093391;28;20008;-56
2022/02/02 06:04:24;;;;;;;1.95;0.73;;;19.90;43.50;;;;;;5093262;28;20016;-57
2022/02/02 06:06:50;;;;;;;0.68;0.47;;;20.00;43.40;;;;;;5092034;28;20023;-57
2022/02/02 06:09:17;;;;;;;1.30;0.70;;;20.10;43.40;;;;;;5091962;28;20020;-57
2022/02/02 06:11:44;;;;;;;1.10;0.57;;;20.10;43.30;;;;;;5092111;28;20020;-57
2022/02/02 06:14:09;;;;;;;3.10;0.60;;;20.10;43.20;;;;;;5093344;28;20015;-57
2022/02/02 06:16:36;;;;;;;1.52;0.80;;;20.20;43.20;;;;;;5092996;28;20385;-57
2022/02/02 06:19:02;;;;;;;1.15;0.60;;;20.20;43.10;;;;;;5092884;28;20569;-57
2022/02/02 06:21:30;;;;;;;2.65;0.80;;;20.30;43.00;;;;;;5093302;28;20099;-56
2022/02/02 06:23:57;;;;;;;1.48;0.73;;;20.30;43.00;;;;;;5093197;28;20034;-57
2022/02/02 06:26:24;;;;;;;1.42;0.73;;;20.40;42.90;;;;;;5093312;28;20095;-57
2022/02/02 06:28:50;;;;;;;0.98;0.63;;;20.40;42.90;;;;;;5093177;28;20023;-57
2022/02/02 06:31:17;;;;;;;1.73;0.80;;;20.40;42.80;;;;;;5092965;28;20386;-57
2022/02/02 06:33:43;;;;;;;2.35;0.73;;;20.40;42.80;;;;;;5093244;28;20024;-57
2022/02/02 06:36:10;;;;;;;1.25;0.68;;;20.50;42.70;;;;;;5094258;28;20391;-57
2022/02/02 06:38:38;;;;;;;1.52;0.73;;;20.50;42.70;;;;;;5097152;28;20023;-57
2022/02/02 06:41:04;;;;;;;1.77;0.80;;;20.60;42.70;;;;;;5096013;28;20031;-57
2022/02/02 06:43:30;;;;;;;1.38;0.63;;;20.60;42.60;;;;;;5096849;28;20016;-56
2022/02/02 06:45:58;;;;;;;1.83;0.88;;;20.60;42.60;;;;;;5078797;28;20068;-57
2022/02/02 06:48:24;;;;;;;1.25;0.70;;;20.70;42.60;;;;;;5097059;28;20054;-57
2022/02/02 06:50:58;;;;;;;0.98;0.52;;;20.70;42.50;;;;;;5096992;28;20063;-57
2022/02/02 06:53:33;;;;;;;1.15;0.60;;;20.70;42.40;;;;;;5096488;28;20141;-57
2022/02/02 07:01:47;;;;;;;1.05;0.60;;;20.80;42.50;;;;;;5096003;28;20020;-57
2022/02/02 07:04:41;;;;;;;1.42;0.60;;;20.80;42.50;;;;;;5094911;28;20016;-59
2022/02/02 07:07:21;;;;;;;1.65;0.63;;;20.90;42.40;;;;;;5096499;28;20016;-58
2022/02/02 07:10:09;;;;;;;1.50;0.68;;;20.90;42.40;;;;;;5096283;28;20053;-56
2022/02/02 07:13:09;;;;;;;1.25;0.55;;;20.90;42.30;;;;;;5095417;28;20547;-55
2022/02/02 07:20:51;;;;;;;0.95;0.60;;;21.00;42.40;;;;;;5094474;28;20102;-55
2022/02/02 07:23:44;;;;;;;2.10;0.77;;;21.00;42.30;;;;;;5094123;28;20012;-57
2022/02/02 07:26:29;;;;;;;1.63;0.70;;;21.00;42.30;;;;;;5093330;28;20031;-55
2022/02/02 07:29:11;;;;;;;3.22;1.00;;;21.10;42.70;;;;;;5092333;28;20035;-53
2022/02/02 07:31:46;;;;;;;8.50;1.60;;;21.10;43.40;;;;;;5093646;28;20020;-54
2022/02/02 07:35:08;;;;;;;9.32;1.80;;;21.20;44.20;;;;;;5093011;28;20057;-51
2022/02/02 07:37:34;;;;;;;8.82;1.60;;;21.30;44.30;;;;;;5093721;28;20020;-50
2022/02/02 07:40:04;;;;;;;6.18;1.90;;;21.40;44.50;;;;;;5093848;28;20078;-52
2022/02/02 07:42:29;;;;;;;6.72;1.83;;;21.50;44.70;;;;;;5093883;28;20004;-53
2022/02/02 07:45:06;;;;;;;9.20;1.88;;;21.60;44.70;;;;;;5093727;28;20065;-52
2022/02/02 07:47:33;;;;;;;6.72;1.92;;;21.70;44.60;;;;;;5092959;28;20004;-44
2022/02/02 07:49:58;;;;;;;6.63;1.73;;;21.80;44.50;;;;;;5093174;28;20013;-44
2022/02/02 07:52:28;;;;;;;10.25;2.28;;;21.80;44.30;;;;;;5091909;28;20069;-46
2022/02/02 07:54:54;;;;;;;4.20;1.70;;;21.90;44.20;;;;;;5091765;28;20523;-45
2022/02/02 07:57:26;;;;;;;9.93;1.90;;;21.90;44.10;;;;;;5092899;28;20019;-48
2022/02/02 07:59:59;;;;;;;8.90;2.22;;;22.00;43.90;;;;;;5091472;28;20024;-47
2022/02/02 08:05:12;;;;;;;7.30;2.05;;;22.00;44.00;;;;;;5092414;28;20339;-48
2022/02/02 08:07:44;;;;;;;4.47;1.63;;;22.00;44.10;;;;;;5093296;28;20046;-47
2022/02/02 08:10:18;;;;;;;7.68;2.10;;;22.00;43.90;;;;;;5093533;28;20016;-48
2022/02/02 08:15:10;;;;;;;8.73;1.85;;;22.00;43.70;;;;;;5092148;28;20161;-48
2022/02/02 08:17:39;;;;;;;7.28;1.70;;;21.90;44.10;;;;;;5093908;28;20054;-47
2022/02/02 08:20:06;;;;;;;8.40;1.80;;;21.80;44.30;;;;;;5093394;28;20402;-47
2022/02/02 08:22:32;;;;;;;8.20;2.15;;;21.80;44.60;;;;;;5093790;28;20016;-48
2022/02/02 08:24:58;;;;;;;10.35;2.08;;;21.70;44.60;;;;;;5092727;28;20008;-48
2022/02/02 08:27:24;;;;;;;7.90;1.73;;;21.70;44.70;;;;;;5094214;28;20038;-46
2022/02/02 08:29:53;;;;;;;6.20;1.55;;;21.70;44.80;;;;;;5094163;28;20012;-46
2022/02/02 08:32:19;;;;;;;10.23;2.08;;;21.70;44.70;;;;;;5093692;28;20016;-47
2022/02/02 08:34:48;;;;;;;8.70;2.03;;;21.70;44.70;;;;;;5092669;28;20070;-47
2022/02/02 08:37:14;;;;;;;8.02;1.98;;;21.70;44.70;;;;;;5094067;28;20046;-49
2022/02/02 08:40:10;;;;;;;6.75;1.63;;;21.70;44.70;;;;;;5094099;28;20114;-47
2022/02/02 08:42:37;;;;;;;7.63;1.58;;;21.70;44.70;;;;;;5094091;28;20040;-47
2022/02/02 08:45:26;;;;;;;6.20;1.60;;;21.70;44.70;;;;;;5093380;28;20514;-45
2022/02/02 08:47:59;;;;;;;6.38;1.42;;;21.70;44.60;;;;;;5093422;28;20091;-45
2022/02/02 08:50:52;;;;;;;10.23;1.92;;;21.70;44.70;;;;;;5093368;28;20028;-47
2022/02/02 08:53:29;;;;;;;5.28;1.95;;;21.80;44.60;;;;;;5093062;28;20071;-44
2022/02/02 08:58:47;;;;;;;8.40;1.70;;;21.80;44.60;;;;;;5091728;28;20450;-44
2022/02/02 09:01:34;;;;;;;7.25;1.65;;;21.80;44.50;;;;;;5091652;28;20031;-44
2022/02/02 09:06:45;;;;;;;10.00;1.73;;;21.80;44.50;;;;;;5093602;28;20023;-52
2022/02/02 09:09:17;;;;;;;6.68;1.55;;;21.80;44.50;;;;;;5092081;28;20019;-48
2022/02/02 09:20:23;;;;;;;5.75;1.55;;;21.90;44.40;;;;;;5092272;28;20104;-49
2022/02/02 09:36:07;;;;;;;3.80;1.10;;;22.00;44.20;;;;;;5092219;28;20111;-51
2022/02/02 09:38:33;;;;;;;4.93;1.63;;;22.00;44.20;;;;;;5092828;28;20032;-46
2022/02/02 09:43:57;;;;;;;5.32;1.50;;;22.00;44.20;;;;;;5090891;28;20031;-48
2022/02/02 09:46:28;;;;;;;5.00;1.90;;;22.00;44.20;;;;;;5092414;28;20014;-49
2022/02/02 09:48:58;;;;;;;;;;;22.00;44.10;;;;;;5092370;28;20016;-51
2022/02/02 09:51:34;;;;;;;8.70;1.70;;;22.00;44.20;;;;;;5092018;28;19900;-49
2022/02/02 10:13:04;;;;;;;3.38;1.55;;;22.20;44.50;;;;;;5091883;28;20458;-51
2022/02/02 10:15:33;;;;;;;2.40;1.10;;;22.20;44.50;;;;;;5090964;28;20020;-48
2022/02/02 10:18:02;;;;;;;4.28;1.30;;;22.20;44.50;;;;;;5091538;28;20032;-48
2022/02/02 10:20:29;;;;;;;2.97;1.55;;;22.20;44.50;;;;;;5110914;28;20526;-51
2022/02/02 10:22:57;;;;;;;3.05;1.00;;;22.20;44.50;;;;;;5111016;28;20451;-50
2022/02/02 10:25:32;;;;;;;4.68;1.42;;;22.20;44.50;;;;;;5112055;28;20024;-49
2022/02/02 10:28:10;;;;;;;5.15;1.67;;;22.30;44.50;;;;;;5111988;28;20019;-52
2022/02/02 10:30:37;;;;;;;3.83;1.67;;;22.20;44.50;;;;;;5111988;28;20023;-50
2022/02/02 10:33:05;;;;;;;6.03;1.17;;;22.30;44.50;;;;;;5111892;28;20015;-51
2022/02/02 10:35:42;;;;;;;4.68;1.42;;;22.30;44.50;;;;;;5112091;28;20470;-47
2022/02/02 10:38:16;;;;;;;3.28;1.25;;;22.30;44.50;;;;;;5112338;28;20043;-50
2022/02/02 10:40:51;;;;;;;3.35;1.10;;;22.30;44.50;;;;;;5111969;28;20500;-49
2022/02/02 10:43:36;;;;;;;2.80;1.40;;;22.30;44.40;;;;;;5112173;28;20052;-51
2022/02/02 10:46:24;;;;;;;3.38;1.40;;;22.30;44.40;;;;;;5111478;28;20016;-50
2022/02/02 10:48:56;;;;;;;4.45;1.23;;;22.30;44.40;;;;;;5112103;28;20019;-53
2022/02/02 10:51:36;;;;;;;4.53;1.27;;;22.30;44.40;;;;;;5110980;28;20081;-52
2022/02/02 11:01:48;;;;;;;2.65;1.33;;;22.40;44.30;;;;;;5111614;28;20019;-49
2022/02/02 11:06:59;;;;;;;1.73;0.90;;;22.40;44.20;;;;;;5113432;28;20367;-54
2022/02/02 11:09:26;;;;;;;3.67;1.60;;;22.40;44.30;;;;;;5112412;28;20098;-55
2022/02/02 11:12:07;;;;;;;3.90;1.20;;;22.40;44.20;;;;;;5113104;28;20035;-54
2022/02/02 11:14:34;;;;;;;3.15;1.17;;;22.40;44.30;;;;;;5112710;28;20396;-50
2022/02/02 11:17:23;;;;;;;3.40;1.30;;;22.40;44.40;;;;;;5113429;28;20024;-51
2022/02/02 11:19:52;;;;;;;1.83;0.98;;;22.40;44.50;;;;;;5113487;28;20570;-53
2022/02/02 11:22:22;;;;;;;2.13;1.20;;;22.30;44.50;;;;;;5112827;28;20016;-50
2022/02/02 11:24:48;;;;;;;2.55;1.00;;;22.30;44.70;;;;;;5116738;28;20470;-53
2022/02/02 11:27:37;;;;;;;1.58;0.90;;;22.20;44.80;;;;;;5116494;28;20098;-52
2022/02/02 11:30:29;;;;;;;3.22;1.38;;;22.10;44.90;;;;;;5116452;28;20038;-56
2022/02/02 11:33:02;;;;;;;3.47;1.40;;;22.00;45.00;;;;;;5116461;28;20024;-55
2022/02/02 11:35:44;;;;;;;2.75;1.38;;;22.00;45.20;;;;;;5115007;28;20051;-54
2022/02/02 11:38:19;;;;;;;2.53;0.90;;;21.90;45.30;;;;;;5116486;28;20041;-55
2022/02/02 11:41:09;;;;;;;2.25;1.40;;;21.90;45.50;;;;;;5116445;27;20122;-55
2022/02/02 11:43:54;;;;;;;2.42;1.17;;;21.80;45.60;;;;;;5114910;28;20022;-54
2022/02/02 11:46:38;;;;;;;2.95;1.05;;;21.70;45.70;;;;;;5116099;28;20012;-55
2022/02/02 11:49:31;;;;;;;1.90;0.95;;;21.70;45.90;;;;;;5116289;28;20031;-55
2022/02/02 11:51:58;;;;;;;3.03;1.10;;;21.60;46.00;;;;;;5116211;28;20049;-54
2022/02/02 11:54:42;;;;;;;4.55;1.20;;;21.60;46.10;;;;;;5115846;28;20008;-56
2022/02/02 11:57:34;;;;;;;3.50;1.45;;;21.50;46.20;;;;;;5115966;28;20488;-55
2022/02/02 12:00:16;;;;;;;5.50;1.20;;;21.40;46.30;;;;;;5115985;28;20024;-54
2022/02/02 12:05:53;;;;;;;3.15;1.05;;;21.40;46.50;;;;;;5116218;28;20095;-56
2022/02/02 12:49:10;;;;;;;2.83;1.33;;;20.60;48.00;;;;;;5113927;28;20044;-65
2022/02/02 12:57:00;;;;;;;2.65;1.08;;;20.50;48.30;;;;;;5115153;28;20026;-58
2022/02/02 13:00:07;;;;;;;4.28;1.20;;;20.50;48.30;;;;;;5114002;28;20106;-58
2022/02/02 13:02:26;;;;;;;5.07;1.10;;;20.40;48.50;;;;;;5112445;28;20024;-57
2022/02/02 13:04:55;;;;;;;2.38;0.80;;;20.40;48.60;;;;;;5113667;28;20015;-57
2022/02/02 13:07:21;;;;;;;2.35;1.00;;;20.30;48.60;;;;;;5114477;28;20011;-58
2022/02/02 13:09:50;;;;;;;3.50;0.82;;;20.30;48.70;;;;;;5114474;28;20111;-58
2022/02/02 13:12:24;;;;;;;1.83;1.00;;;20.30;48.70;;;;;;5114551;28;20083;-58
2022/02/02 13:15:17;;;;;;;1.27;0.85;;;20.20;48.70;;;;;;5114830;28;20016;-58
2022/02/02 13:20:46;;;;;;;4.25;1.30;;;20.20;49.00;;;;;;5114619;28;20078;-58
2022/02/02 13:26:00;;;;;;;1.90;1.02;;;20.10;49.00;;;;;;5114630;27;20020;-58
2022/02/02 13:28:59;;;;;;;5.03;1.10;;;20.10;49.10;;;;;;5114369;28;20016;-57
2022/02/02 13:35:06;;;;;;;1.67;1.00;;;20.00;49.20;;;;;;5114398;28;20019;-56
2022/02/02 13:58:44;;;;;;;1.02;0.70;;;19.80;49.60;;;;;;5113940;28;20085;-56
2022/02/02 14:33:14;;;;;;;3.40;0.80;;;19.50;50.30;;;;;;5112215;28;20089;-56
2022/02/02 14:35:40;;;;;;;1.42;0.90;;;19.40;50.30;;;;;;5113291;28;20028;-57
2022/02/02 14:38:06;;;;;;;1.92;1.23;;;19.40;50.40;;;;;;5113086;28;20028;-59
2022/02/02 14:40:42;;;;;;;1.75;0.95;;;19.40;50.40;;;;;;5111944;28;20023;-56
2022/02/02 14:43:11;;;;;;;1.08;0.70;;;19.40;50.30;;;;;;5113104;28;20027;-57
2022/02/02 14:45:41;;;;;;;1.73;0.73;;;19.40;50.30;;;;;;5113542;28;20069;-55
2022/02/02 14:48:20;;;;;;;1.20;0.70;;;19.40;50.40;;;;;;5113267;28;20011;-55
2022/02/02 14:53:33;;;;;;;1.15;0.75;;;19.30;50.50;;;;;;5113486;28;20120;-54
2022/02/02 15:27:36;;;;;;;1.52;0.75;;;19.00;51.10;;;;;;5116684;28;20038;-48
2022/02/02 15:30:27;;;;;;;1.65;0.90;;;19.00;51.10;;;;;;5116803;28;20032;-48
2022/02/02 15:32:56;;;;;;;;;;;18.90;51.10;;;;;;5115891;28;20024;-48
2022/02/02 15:35:22;;;;;;;2.33;0.90;;;18.90;51.10;;;;;;5116237;28;19899;-49
2022/02/02 15:40:17;;;;;;;2.35;0.88;;;18.90;51.20;;;;;;5116243;28;20035;-49
2022/02/02 15:58:35;;;;;;;1.13;0.70;;;18.80;51.50;;;;;;5115928;28;20024;-51
2022/02/02 16:02:03;;;;;;;1.77;0.80;;;18.80;51.50;;;;;;5116091;28;20051;-52
2022/02/02 16:03:52;;;;;;;0.98;0.65;;;18.70;51.50;;;;;;5115614;28;20390;-52
2022/02/02 16:06:21;;;;;;;0.98;0.77;;;18.70;51.50;;;;;;5114716;28;20476;-51
2022/02/02 16:08:55;;;;;;;1.27;0.90;;;18.70;51.50;;;;;;5115492;28;20024;-51
2022/02/02 16:11:26;;;;;;;1.80;1.00;;;18.70;51.50;;;;;;5115966;28;20149;-48
2022/02/02 16:14:00;;;;;;;1.58;0.77;;;18.70;51.70;;;;;;5115982;28;20020;-48
2022/02/02 16:16:43;;;;;;;1.63;0.90;;;18.60;51.70;;;;;;5116122;28;20404;-48
2022/02/02 16:19:21;;;;;;;2.13;1.10;;;18.60;51.70;;;;;;5115789;28;20046;-48
2022/02/02 16:38:12;;;;;;;0.88;0.75;;;18.60;51.90;;;;;;5052703;28;20021;-48
2022/02/02 16:40:42;;;;;;;1.20;0.73;;;18.50;51.80;;;;;;5052474;28;20029;-48
2022/02/02 16:43:13;;;;;;;1.40;0.63;;;18.60;51.80;;;;;;5052450;28;20087;-47
2022/02/02 16:45:50;;;;;;;1.38;0.93;;;18.50;51.80;;;;;;5052407;28;20484;-48
2022/02/02 16:48:16;;;;;;;2.05;0.77;;;18.60;51.90;;;;;;5052761;28;20025;-46
2022/02/02 16:51:05;;;;;;;1.92;1.02;;;18.50;51.90;;;;;;5053334;28;20515;-47
2022/02/02 16:53:39;;;;;;;2.55;0.80;;;18.50;51.90;;;;;;5052622;28;20033;-47
2022/02/02 16:56:13;;;;;;;1.00;0.70;;;18.50;51.90;;;;;;5036870;28;20041;-48
2022/02/02 17:29:37;;;;;;;2.17;0.88;;;18.40;52.10;;;;;;5114664;28;20107;-48
2022/02/02 17:33:47;;;;;;;2.13;0.90;;;18.40;52.00;;;;;;5113841;28;20081;-47
2022/02/02 17:36:23;;;;;;;2.65;0.70;;;18.40;52.10;;;;;;5113287;28;20046;-51
2022/02/02 17:38:57;;;;;;;1.42;0.90;;;18.40;52.10;;;;;;5114633;28;20015;-52
2022/02/02 17:44:19;;;;;;;2.95;0.75;;;18.30;52.10;;;;;;5114264;28;20042;-51
2022/02/02 17:58:47;;;;;;;2.10;0.98;;;18.20;52.20;;;;;;5113311;28;20442;-49
2022/02/02 18:03:37;;;;;;;1.42;0.85;;;18.30;52.20;;;;;;5114030;28;20531;-46
2022/02/02 18:15:47;;;;;;;1.00;0.60;;;18.30;52.20;;;;;;5070855;28;20036;-44
2022/02/02 18:20:25;;;;;;;1.13;0.77;;;18.20;52.10;;;;;;5070616;28;20051;-45
2022/02/02 18:23:00;;;;;;;0.63;0.50;;;18.20;52.20;;;;;;5070727;28;20055;-45
2022/02/02 18:33:37;;;;;;;1.50;0.90;;;18.20;52.30;;;;;;5070930;28;20530;-47
2022/02/02 18:40:06;;;;;;;0.85;0.80;;;18.20;52.30;;;;;;5070804;28;20037;-46
2022/02/02 19:00:04;;;;;;;1.45;0.90;;;18.10;52.30;;;;;;5114649;28;20067;-46
2022/02/02 19:05:29;;;;;;;0.85;0.73;;;18.10;52.30;;;;;;5114029;28;20607;-47
2022/02/02 19:08:09;;;;;;;2.35;0.68;;;18.10;52.30;;;;;;5113753;28;20024;-46
2022/02/02 19:40:33;;;;;;;1.17;0.88;;;18.00;52.60;;;;;;5113501;28;20043;-46
2022/02/02 19:55:10;;;;;;;1.15;0.70;;;18.00;52.40;;;;;;5115460;28;20020;-45
2022/02/02 20:04:51;;;;;;;1.02;0.60;;;17.90;52.50;;;;;;5115813;28;20019;-46
2022/02/02 20:12:14;;;;;;;1.30;0.90;;;17.90;52.40;;;;;;5114597;28;20496;-46
2022/02/02 20:14:41;;;;;;;1.48;0.85;;;17.90;52.40;;;;;;5115641;28;20438;-46
2022/02/02 20:17:11;;;;;;;0.93;0.73;;;17.90;52.40;;;;;;5115040;28;20081;-46
2022/02/02 20:19:39;;;;;;;2.20;0.80;;;17.90;52.50;;;;;;5115756;28;20048;-45
2022/02/02 20:22:06;;;;;;;1.40;0.93;;;17.90;52.50;;;;;;5116172;28;20383;-45
2022/02/02 20:24:38;;;;;;;1.40;0.90;;;17.90;52.50;;;;;;5116492;28;20015;-45
2022/02/02 20:27:04;;;;;;;1.83;0.90;;;17.80;52.50;;;;;;5115706;28;20148;-45
2022/02/02 20:29:32;;;;;;;1.02;0.80;;;17.90;52.50;;;;;;5114223;28;20063;-45
2022/02/02 20:31:57;;;;;;;0.90;0.73;;;17.90;52.50;;;;;;5114484;28;20023;-46
2022/02/02 20:34:26;;;;;;;1.13;0.73;;;17.90;52.50;;;;;;5115602;28;20377;-45
2022/02/02 20:36:52;;;;;;;1.10;0.80;;;17.90;52.50;;;;;;5115454;28;20046;-45
2022/02/02 20:40:06;;;;;;;0.82;0.70;;;17.90;52.40;;;;;;5115464;28;20095;-47
2022/02/02 20:42:07;;;;;;;1.23;0.75;;;17.80;52.40;;;;;;5107596;28;20030;-45
2022/02/02 21:01:50;;;;;;;0.88;0.70;;;17.80;52.40;;;;;;5115356;28;20119;-50
2022/02/02 21:07:36;;;;;;;1.13;0.90;;;17.80;52.50;;;;;;5115556;28;20057;-52
2022/02/02 21:13:41;;;;;;;1.90;0.70;;;17.80;52.50;;;;;;5115009;28;20012;-56
2022/02/02 21:14:49;;;;;;;1.25;1.00;;;17.80;52.50;;;;;;5114421;28;20478;-53
2022/02/02 21:17:23;;;;;;;0.85;0.80;;;17.70;52.50;;;;;;5113582;28;20031;-53
2022/02/02 21:20:10;;;;;;;1.33;0.80;;;17.80;52.60;;;;;;5114097;28;20105;-53
2022/02/02 21:22:47;;;;;;;1.73;0.98;;;17.70;52.50;;;;;;5114286;28;20521;-53
2022/02/02 21:28:01;;;;;;;1.00;0.85;;;17.80;52.50;;;;;;5114616;28;20026;-53
2022/02/02 21:30:27;;;;;;;3.22;1.00;;;17.80;52.50;;;;;;5114000;28;20044;-52
2022/02/02 21:32:54;;;;;;;1.30;0.82;;;17.80;52.50;;;;;;5114920;27;20066;-52
2022/02/02 21:35:20;;;;;;;2.08;1.15;;;17.80;52.60;;;;;;5114906;28;20024;-57
2022/02/02 21:37:48;;;;;;;1.55;0.82;;;17.70;52.50;;;;;;5114923;28;20096;-51
2022/02/02 21:40:26;;;;;;;1.35;0.90;;;17.70;52.60;;;;;;5114848;28;20023;-53
2022/02/02 21:42:52;;;;;;;1.17;0.80;;;17.70;52.60;;;;;;5114672;28;20031;-55
2022/02/02 21:45:18;;;;;;;1.17;0.90;;;17.70;52.50;;;;;;5114732;28;20012;-52
2022/02/02 21:47:45;;;;;;;3.25;0.88;;;17.70;52.50;;;;;;5114516;28;20474;-51
2022/02/02 21:50:14;;;;;;;1.08;0.80;;;17.70;52.60;;;;;;5114561;28;20064;-58
2022/02/02 21:52:40;;;;;;;1.10;0.70;;;17.70;52.60;;;;;;5114581;28;20031;-51
2022/02/02 21:55:07;;;;;;;1.30;0.80;;;17.70;52.70;;;;;;5113843;28;20019;-55
2022/02/02 21:57:34;;;;;;;0.93;0.73;;;17.70;52.70;;;;;;5114242;28;20107;-53
2022/02/02 22:00:00;;;;;;;1.02;0.85;;;17.70;52.60;;;;;;5114030;28;20020;-52
2022/02/02 22:02:28;;;;;;;0.77;0.77;;;17.70;52.70;;;;;;5114326;28;20016;-52
2022/02/02 22:04:53;;;;;;;1.20;0.90;;;17.70;52.70;;;;;;5114504;28;20030;-51
2022/02/02 22:07:20;;;;;;;1.60;0.90;;;17.60;52.60;;;;;;5113769;28;20016;-50
2022/02/02 22:09:49;;;;;;;1.50;1.00;;;17.70;52.70;;;;;;5113677;28;20008;-54
2022/02/02 22:12:15;;;;;;;1.77;0.90;;;17.60;52.70;;;;;;5112647;28;20100;-56
2022/02/02 22:14:43;;;;;;;1.10;0.88;;;17.60;52.60;;;;;;5113486;28;20016;-53
2022/02/02 22:17:09;;;;;;;1.45;0.90;;;17.60;52.60;;;;;;5113460;28;20023;-54
2022/02/02 22:19:36;;;;;;;1.02;0.80;;;17.60;52.70;;;;;;5113123;28;20060;-54
2022/02/02 22:22:04;;;;;;;0.88;0.80;;;17.60;52.70;;;;;;5113186;28;20031;-53
2022/02/02 22:24:35;;;;;;;2.13;1.10;;;17.60;52.70;;;;;;5113544;28;20016;-53
2022/02/02 22:27:01;;;;;;;1.33;0.90;;;17.60;52.70;;;;;;5112462;28;20012;-53
2022/02/02 22:29:27;;;;;;;3.15;1.08;;;17.60;52.70;;;;;;5113169;28;20016;-54
2022/02/02 22:31:54;;;;;;;1.25;1.10;;;17.60;52.70;;;;;;5113134;28;20046;-54
2022/02/02 22:34:20;;;;;;;1.10;0.90;;;17.60;52.70;;;;;;5113249;28;20114;-54
2022/02/02 22:36:46;;;;;;;1.58;1.08;;;17.60;52.70;;;;;;5113470;28;20108;-54
2022/02/02 22:39:13;;;;;;;1.27;0.88;;;17.60;52.70;;;;;;5113100;28;20012;-53
2022/02/02 22:41:39;;;;;;;1.08;0.90;;;17.60;52.70;;;;;;5113080;28;20032;-54
2022/02/02 22:44:11;;;;;;;1.00;0.75;;;17.60;52.80;;;;;;5113111;28;20505;-54
2022/02/02 22:46:37;;;;;;;;;;;17.60;53.30;;;;;;5112879;28;20019;-55
2022/02/02 22:49:03;;;;;;;0.73;0.70;;;17.60;52.70;;;;;;5113086;28;19907;-54
2022/02/02 22:51:31;;;;;;;3.45;0.90;;;17.60;52.70;;;;;;5113298;28;20069;-55
2022/02/02 22:53:58;;;;;;;3.42;1.08;;;17.60;52.70;;;;;;5111905;28;20048;-55
2022/02/02 22:56:23;;;;;;;1.13;0.77;;;17.60;52.70;;;;;;5112987;28;20020;-55
2022/02/02 22:58:50;;;;;;;1.17;0.90;;;17.60;52.70;;;;;;5113378;28;20008;-54
2022/02/02 23:01:17;;;;;;;1.27;0.70;;;17.60;52.70;;;;;;5112070;28;20076;-55
2022/02/02 23:03:43;;;;;;;2.42;0.98;;;17.60;52.70;;;;;;5111767;28;20023;-55
2022/02/02 23:06:08;;;;;;;1.15;0.88;;;17.50;52.60;;;;;;5111662;28;20034;-55
2022/02/02 23:08:34;;;;;;;1.73;1.00;;;17.50;52.60;;;;;;5112947;28;20020;-57
2022/02/02 23:11:00;;;;;;;1.00;0.70;;;17.60;52.60;;;;;;5113316;28;20701;-56
2022/02/02 23:13:27;;;;;;;1.75;0.80;;;17.50;52.60;;;;;;5113346;28;20023;-54
2022/02/02 23:16:05;;;;;;;1.90;1.08;;;17.50;52.60;;;;;;5113225;28;20020;-55
2022/02/02 23:18:34;;;;;;;1.20;0.80;;;17.60;52.60;;;;;;5113861;28;20045;-55
2022/02/02 23:21:03;;;;;;;1.25;1.05;;;17.60;52.60;;;;;;5116647;28;20031;-53
2022/02/02 23:23:31;;;;;;;1.02;0.82;;;17.60;52.60;;;;;;5116990;28;20077;-49
2022/02/02 23:25:58;;;;;;;1.52;0.95;;;17.50;52.60;;;;;;5116658;28;20008;-48
2022/02/02 23:28:28;;;;;;;1.45;1.00;;;17.50;52.60;;;;;;5116863;28;20018;-48
2022/02/02 23:30:53;;;;;;;1.20;0.80;;;17.50;52.60;;;;;;5116914;28;20015;-49
2022/02/02 23:33:20;;;;;;;1.48;0.90;;;17.50;52.70;;;;;;5115638;28;20020;-48
2022/02/02 23:35:46;;;;;;;1.88;1.08;;;17.50;52.60;;;;;;5116724;28;20051;-49
2022/02/02 23:38:12;;;;;;;1.67;0.93;;;17.50;52.70;;;;;;5116712;28;20110;-50
2022/02/02 23:43:11;;;;;;;1.17;1.00;;;17.50;52.60;;;;;;5116703;28;20038;-48
2022/02/02 23:45:37;;;;;;;1.45;0.80;;;17.50;52.60;;;;;;5116316;28;20015;-50
2022/02/02 23:48:02;;;;;;;1.30;0.80;;;17.50;52.60;;;;;;5115478;27;20027;-51
2022/02/02 23:50:28;;;;;;;1.63;0.85;;;17.50;52.60;;;;;;5115912;28;20015;-51
2022/02/02 23:52:55;;;;;;;1.95;1.00;;;17.50;52.50;;;;;;5115271;28;20411;-47
2022/02/02 23:55:28;;;;;;;1.02;0.80;;;17.50;52.60;;;;;;5116308;27;20019;-48
